Time;durP1;ratioP1;P1;durP2;ratioP2;P2;SDS_P1;SDS_P2;PMS_P1;PMS_P2;Temp;Humidity;BMP_temperature;BMP_pressure;BME280_temperature;BME280_humidity;BME280_pressure;Samples;Min_cycle;Max_cycle;Signal;HPM_P1;HPM_P2
2022/12/25 00:01:52;;;;;;;3.03;1.90;;;;;;;;;;5023746;28;20044;-83
2022/12/25 00:04:18;;;;;;;2.35;1.70;;;;;;;;;;5023599;28;20045;-83
2022/12/25 00:06:43;;;;;;;3.10;1.70;;;;;;;;;;5041138;28;20418;-83
2022/12/25 00:09:09;;;;;;;3.25;1.77;;;;;;;;;;5041158;28;20037;-83
2022/12/25 00:11:34;;;;;;;2.78;1.60;;;;;;;;;;5023094;28;20486;-83
2022/12/25 00:14:00;;;;;;;2.90;1.80;;;;;;;;;;5040540;28;20041;-83
2022/12/25 00:16:26;;;;;;;2.95;1.95;;;;;;;;;;5041182;28;20037;-82
2022/12/25 00:18:52;;;;;;;3.58;1.90;;;;;;;;;;5023284;28;20398;-83
2022/12/25 00:21:19;;;;;;;2.90;1.70;;;;;;;;;;5040501;28;20037;-83
2022/12/25 00:23:45;;;;;;;4.13;1.90;;;;;;;;;;5023114;28;20108;-83
2022/12/25 00:26:16;;;;;;;3.35;1.80;;;;;;;;;;5023017;28;20030;-83
2022/12/25 00:28:42;;;;;;;2.25;1.50;;;;;;;;;;5040775;28;20045;-83
2022/12/25 00:31:16;;;;;;;4.97;1.50;;;;;;;;;;5040380;28;20494;-83
2022/12/25 00:33:42;;;;;;;;;;;;;;;;;;5007268;28;20038;-83
2022/12/25 00:36:09;;;;;;;3.83;1.73;;;;;;;;;;5039612;28;20300;-84
2022/12/25 00:38:36;;;;;;;4.03;1.60;;;;;;;;;;5040893;28;20585;-83
2022/12/25 00:41:06;;;;;;;2.72;1.60;;;;;;;;;;5040877;28;20040;-83
2022/12/25 00:43:32;;;;;;;4.00;1.67;;;;;;;;;;5041047;28;20033;-83
2022/12/25 00:46:01;;;;;;;3.22;1.88;;;;;;;;;;5040417;28;20037;-83
2022/12/25 00:48:28;;;;;;;4.88;1.90;;;;;;;;;;5022764;28;20085;-83
2022/12/25 00:50:55;;;;;;;3.42;2.00;;;;;;;;;;5040168;28;20542;-83
2022/12/25 00:53:22;;;;;;;7.13;2.15;;;;;;;;;;5022207;28;20029;-83
2022/12/25 00:55:56;;;;;;;3.63;1.95;;;;;;;;;;5022570;28;20029;-83
2022/12/25 00:58:23;;;;;;;4.20;2.00;;;;;;;;;;5022293;28;20045;-83
2022/12/25 01:00:49;;;;;;;3.05;2.10;;;;;;;;;;5039911;28;20042;-83
2022/12/25 01:03:16;;;;;;;4.50;1.90;;;;;;;;;;5040222;28;20478;-83
2022/12/25 01:05:42;;;;;;;3.38;1.92;;;;;;;;;;5021700;28;20117;-83
2022/12/25 01:08:07;;;;;;;3.33;1.90;;;;;;;;;;5039887;28;20029;-83
2022/12/25 01:10:33;;;;;;;5.45;2.00;;;;;;;;;;5022409;28;20104;-83
2022/12/25 01:12:58;;;;;;;2.95;1.90;;;;;;;;;;5022473;28;20084;-83
2022/12/25 01:15:24;;;;;;;4.72;1.83;;;;;;;;;;5021109;28;20041;-83
2022/12/25 01:17:49;;;;;;;3.88;1.77;;;;;;;;;;5039136;28;20064;-83
2022/12/25 01:20:16;;;;;;;2.53;1.58;;;;;;;;;;5040143;28;20421;-83
2022/12/25 01:22:42;;;;;;;2.42;1.60;;;;;;;;;;5022153;28;20377;-83
2022/12/25 01:25:09;;;;;;;4.03;1.77;;;;;;;;;;5021364;28;20036;-83
2022/12/25 01:27:35;;;;;;;2.72;1.70;;;;;;;;;;5039745;28;20077;-83
2022/12/25 01:30:00;;;;;;;2.65;1.42;;;;;;;;;;5039488;28;20076;-83
2022/12/25 01:32:26;;;;;;;2.20;1.50;;;;;;;;;;5039030;28;20067;-82
2022/12/25 01:34:51;;;;;;;2.47;1.40;;;;;;;;;;5039239;28;20030;-83
2022/12/25 01:37:17;;;;;;;2.75;1.30;;;;;;;;;;5021678;28;20399;-83
2022/12/25 01:39:42;;;;;;;2.40;1.35;;;;;;;;;;5021883;28;20044;-83
2022/12/25 01:42:16;;;;;;;2.05;1.30;;;;;;;;;;5039618;28;20490;-83
2022/12/25 01:44:44;;;;;;;4.25;1.35;;;;;;;;;;5039474;28;20075;-83
2022/12/25 01:47:10;;;;;;;2.42;1.50;;;;;;;;;;5039392;28;20025;-83
2022/12/25 01:49:39;;;;;;;2.42;1.50;;;;;;;;;;5021648;28;20738;-83
2022/12/25 01:52:09;;;;;;;3.15;1.67;;;;;;;;;;5020774;28;20037;-83
2022/12/25 01:54:42;;;;;;;2.17;1.30;;;;;;;;;;5038477;28;20124;-83
2022/12/25 01:57:15;;;;;;;1.50;1.15;;;;;;;;;;5038852;28;20067;-83
2022/12/25 01:59:41;;;;;;;1.77;1.25;;;;;;;;;;5021128;28;20048;-83
2022/12/25 02:02:07;;;;;;;2.05;1.20;;;;;;;;;;5020689;28;20048;-83
2022/12/25 02:04:39;;;;;;;1.58;1.00;;;;;;;;;;5021277;28;20112;-83
2022/12/25 02:07:07;;;;;;;2.47;1.20;;;;;;;;;;5021359;28;20029;-83
2022/12/25 02:09:33;;;;;;;3.00;1.33;;;;;;;;;;5039598;28;20036;-83
2022/12/25 02:11:59;;;;;;;1.83;1.27;;;;;;;;;;5038613;28;20096;-83
2022/12/25 02:14:27;;;;;;;2.55;1.23;;;;;;;;;;5004077;28;20465;-81
2022/12/25 02:17:06;;;;;;;1.65;1.20;;;;;;;;;;5020525;28;20061;-83
2022/12/25 02:19:53;;;;;;;1.65;1.30;;;;;;;;;;5020941;28;20056;-83
2022/12/25 02:22:43;;;;;;;2.25;1.30;;;;;;;;;;5020970;28;20505;-83
2022/12/25 02:25:38;;;;;;;3.08;1.50;;;;;;;;;;5038049;28;20056;-83
2022/12/25 02:28:06;;;;;;;2.33;1.20;;;;;;;;;;4984696;28;20082;-83
2022/12/25 02:30:39;;;;;;;1.88;1.10;;;;;;;;;;5038972;28;20052;-83
2022/12/25 02:35:58;;;;;;;1.33;1.02;;;;;;;;;;5038084;28;20037;-83
2022/12/25 02:38:31;;;;;;;1.80;1.10;;;;;;;;;;5038824;28;20060;-83
2022/12/25 02:41:03;;;;;;;2.00;1.33;;;;;;;;;;5039013;28;20040;-83
2022/12/25 03:12:01;;;;;;;2.95;1.40;;;;;;;;;;5075628;23;20518;-85
2022/12/25 03:17:12;;;;;;;4.43;1.60;;;;;;;;;;5047635;28;20037;-85
2022/12/25 03:28:00;;;;;;;3.70;1.40;;;;;;;;;;5046934;28;20026;-85
2022/12/25 03:33:19;;;;;;;2.83;1.30;;;;;;;;;;5047425;28;20395;-84
2022/12/25 03:36:01;;;;;;;2.33;1.40;;;;;;;;;;5027319;28;20037;-85
2022/12/25 03:39:01;;;;;;;2.50;1.60;;;;;;;;;;5029290;28;20033;-84
2022/12/25 04:36:47;;;;;;;2.10;1.38;;;;;;;;;;5026705;28;20037;-85
2022/12/25 04:39:13;;;;;;;2.50;1.25;;;;;;;;;;5010587;28;20072;-85
2022/12/25 04:41:38;;;;;;;2.72;1.40;;;;;;;;;;5011008;28;20047;-84
2022/12/25 04:44:04;;;;;;;1.85;1.40;;;;;;;;;;5044449;28;20037;-84
2022/12/25 04:46:29;;;;;;;2.03;1.30;;;;;;;;;;5044432;28;20045;-85
2022/12/25 04:48:55;;;;;;;2.15;1.30;;;;;;;;;;5044865;28;20097;-84
2022/12/25 04:51:23;;;;;;;1.58;1.25;;;;;;;;;;5026418;28;20026;-85
2022/12/25 04:53:50;;;;;;;2.85;1.50;;;;;;;;;;5025807;28;20038;-85
2022/12/25 04:56:16;;;;;;;1.58;1.20;;;;;;;;;;5043925;28;20049;-83
2022/12/25 04:58:43;;;;;;;2.03;1.20;;;;;;;;;;5028007;28;20060;-85
2022/12/25 05:01:09;;;;;;;2.17;1.00;;;;;;;;;;5045650;28;20037;-85
2022/12/25 05:03:35;;;;;;;2.83;1.23;;;;;;;;;;5045218;28;20040;-84
2022/12/25 05:06:03;;;;;;;3.80;1.30;;;;;;;;;;5044564;28;20053;-85
2022/12/25 05:08:30;;;;;;;2.22;1.15;;;;;;;;;;5026942;28;20041;-84
2022/12/25 05:10:56;;;;;;;1.50;1.10;;;;;;;;;;5026799;28;20421;-85
2022/12/25 05:13:21;;;;;;;2.70;1.20;;;;;;;;;;5009927;28;20048;-84
2022/12/25 05:15:47;;;;;;;3.58;1.77;;;;;;;;;;5044236;28;20121;-83
2022/12/25 05:18:13;;;;;;;1.90;1.30;;;;;;;;;;5044927;28;20041;-85
2022/12/25 05:20:38;;;;;;;2.22;1.42;;;;;;;;;;5045116;28;20052;-85
2022/12/25 05:23:04;;;;;;;2.58;1.50;;;;;;;;;;5044890;28;20039;-83
2022/12/25 05:25:29;;;;;;;4.22;1.10;;;;;;;;;;5009585;28;20033;-84
2022/12/25 05:27:55;;;;;;;1.70;1.30;;;;;;;;;;5044008;28;20033;-83
2022/12/25 05:30:20;;;;;;;1.65;1.20;;;;;;;;;;5045334;28;20033;-84
2022/12/25 05:32:46;;;;;;;1.65;1.30;;;;;;;;;;5026690;28;20609;-83
2022/12/25 05:35:12;;;;;;;2.22;1.60;;;;;;;;;;5025668;28;20033;-83
2022/12/25 05:37:37;;;;;;;2.42;1.50;;;;;;;;;;5045039;28;20051;-85
2022/12/25 05:40:03;;;;;;;2.40;1.40;;;;;;;;;;5026462;28;20068;-84
2022/12/25 05:42:29;;;;;;;2.05;1.30;;;;;;;;;;5045225;28;20096;-84
2022/12/25 05:44:54;;;;;;;2.10;1.45;;;;;;;;;;5026711;28;20564;-84
2022/12/25 05:47:20;;;;;;;2.47;1.20;;;;;;;;;;5045037;28;20033;-84
2022/12/25 05:49:45;;;;;;;2.00;1.30;;;;;;;;;;5026271;28;20093;-83
2022/12/25 05:52:11;;;;;;;1.83;1.38;;;;;;;;;;5045102;28;20044;-84
2022/12/25 05:54:36;;;;;;;5.75;1.70;;;;;;;;;;5043538;28;20273;-84
2022/12/25 05:57:02;;;;;;;4.72;2.50;;;;;;;;;;5026256;28;20115;-83
2022/12/25 05:59:32;;;;;;;2.20;1.67;;;;;;;;;;5043717;28;20035;-84
2022/12/25 06:01:58;;;;;;;3.13;1.50;;;;;;;;;;5026536;28;20402;-83
2022/12/25 06:04:23;;;;;;;3.33;1.92;;;;;;;;;;5026027;28;20029;-84
2022/12/25 06:06:49;;;;;;;2.70;1.60;;;;;;;;;;5009596;28;20040;-83
2022/12/25 06:09:15;;;;;;;2.10;1.45;;;;;;;;;;5044681;28;20042;-82
2022/12/25 06:11:40;;;;;;;1.45;1.20;;;;;;;;;;5009794;28;20044;-84
2022/12/25 06:14:09;;;;;;;2.30;1.17;;;;;;;;;;5025008;28;20029;-84
2022/12/25 06:16:35;;;;;;;3.03;1.30;;;;;;;;;;5026167;28;20037;-83
2022/12/25 06:19:00;;;;;;;2.83;1.60;;;;;;;;;;5024910;28;20091;-84
2022/12/25 06:21:26;;;;;;;2.92;1.52;;;;;;;;;;5009151;28;20105;-84
2022/12/25 06:23:51;;;;;;;2.28;1.40;;;;;;;;;;5025427;28;20044;-84
2022/12/25 06:26:18;;;;;;;2.83;1.25;;;;;;;;;;5025022;28;20038;-83
2022/12/25 06:28:44;;;;;;;1.42;1.20;;;;;;;;;;5043042;28;20040;-84
2022/12/25 06:31:13;;;;;;;2.35;1.50;;;;;;;;;;5042823;28;20048;-82
2022/12/25 06:33:38;;;;;;;2.90;1.70;;;;;;;;;;5025007;28;20053;-82
2022/12/25 06:36:09;;;;;;;2.70;1.80;;;;;;;;;;5022860;28;20044;-82
2022/12/25 06:38:35;;;;;;;3.90;1.80;;;;;;;;;;5023760;28;20038;-83
2022/12/25 06:41:14;;;;;;;2.58;1.83;;;;;;;;;;5042524;28;20032;-83
2022/12/25 06:43:40;;;;;;;3.28;2.20;;;;;;;;;;5042052;28;20033;-83
2022/12/25 06:46:10;;;;;;;3.33;1.50;;;;;;;;;;5041178;28;20040;-83
2022/12/25 06:48:38;;;;;;;2.60;1.50;;;;;;;;;;5041892;28;20060;-83
2022/12/25 06:51:04;;;;;;;2.10;1.40;;;;;;;;;;5024119;28;20025;-83
2022/12/25 06:53:30;;;;;;;1.98;1.17;;;;;;;;;;5024100;28;20072;-81
2022/12/25 06:56:07;;;;;;;1.98;1.30;;;;;;;;;;5022708;28;20025;-83
2022/12/25 06:58:33;;;;;;;2.03;1.20;;;;;;;;;;5041016;28;20037;-83
2022/12/25 07:00:58;;;;;;;2.17;1.40;;;;;;;;;;5005236;28;20037;-82
2022/12/25 07:03:27;;;;;;;2.08;1.30;;;;;;;;;;5041023;28;20093;-83
2022/12/25 07:05:52;;;;;;;1.55;1.10;;;;;;;;;;5023922;28;20037;-82
2022/12/25 07:08:18;;;;;;;2.38;1.20;;;;;;;;;;5041309;28;20045;-82
2022/12/25 07:10:43;;;;;;;1.55;1.10;;;;;;;;;;5022882;28;20048;-83
2022/12/25 07:13:08;;;;;;;2.05;1.38;;;;;;;;;;5023538;28;20135;-81
2022/12/25 07:15:34;;;;;;;2.05;1.20;;;;;;;;;;5022196;28;20033;-84
2022/12/25 07:18:00;;;;;;;3.78;1.25;;;;;;;;;;5022350;28;20087;-85
2022/12/25 07:20:25;;;;;;;3.15;1.20;;;;;;;;;;5041627;28;20053;-84
2022/12/25 07:22:51;;;;;;;2.05;1.20;;;;;;;;;;5008334;28;20566;-84
2022/12/25 07:25:16;;;;;;;2.10;1.17;;;;;;;;;;5040504;28;20017;-84
2022/12/25 07:27:42;;;;;;;1.40;1.10;;;;;;;;;;5040629;28;20510;-84
2022/12/25 07:30:08;;;;;;;2.03;1.20;;;;;;;;;;5039554;28;20049;-85
2022/12/25 07:32:33;;;;;;;3.08;1.77;;;;;;;;;;5021458;28;20033;-84
2022/12/25 07:34:59;;;;;;;1.90;1.10;;;;;;;;;;5022875;28;20049;-83
2022/12/25 07:37:24;;;;;;;2.20;1.40;;;;;;;;;;5018974;28;20368;-84
2022/12/25 07:39:50;;;;;;;1.60;1.20;;;;;;;;;;5017970;28;20038;-84
2022/12/25 07:42:15;;;;;;;1.50;1.10;;;;;;;;;;5018349;28;20428;-85
2022/12/25 07:44:41;;;;;;;2.25;1.50;;;;;;;;;;5004856;28;20048;-83
2022/12/25 07:47:06;;;;;;;2.03;1.40;;;;;;;;;;5041497;28;20529;-83
2022/12/25 07:49:31;;;;;;;2.58;1.50;;;;;;;;;;5039429;28;20037;-84
2022/12/25 07:51:57;;;;;;;2.72;1.50;;;;;;;;;;5036131;28;20033;-83
2022/12/25 07:54:22;;;;;;;2.17;1.48;;;;;;;;;;5019572;28;20036;-84
2022/12/25 07:56:52;;;;;;;3.65;1.63;;;;;;;;;;5021300;28;20057;-83
2022/12/25 07:59:18;;;;;;;2.83;1.65;;;;;;;;;;5022720;28;20025;-84
2022/12/25 08:01:44;;;;;;;2.92;1.80;;;;;;;;;;5047574;28;20087;-84
2022/12/25 08:04:10;;;;;;;2.92;1.65;;;;;;;;;;5024271;28;20041;-83
2022/12/25 08:06:36;;;;;;;2.70;1.50;;;;;;;;;;5024168;28;20037;-82
2022/12/25 08:09:04;;;;;;;3.00;1.45;;;;;;;;;;5026104;28;20505;-83
2022/12/25 08:11:30;;;;;;;2.03;1.33;;;;;;;;;;5025827;28;20116;-83
2022/12/25 08:13:55;;;;;;;2.85;1.30;;;;;;;;;;5041927;28;20045;-82
2022/12/25 08:16:21;;;;;;;2.38;1.35;;;;;;;;;;5039399;28;20033;-84
2022/12/25 08:18:47;;;;;;;2.80;1.20;;;;;;;;;;5028129;28;20053;-84
2022/12/25 08:21:14;;;;;;;3.08;1.63;;;;;;;;;;5029426;28;20100;-85
2022/12/25 08:23:44;;;;;;;2.75;1.80;;;;;;;;;;5047446;28;20033;-85
2022/12/25 08:26:13;;;;;;;2.85;1.60;;;;;;;;;;5026723;28;20040;-84
2022/12/25 08:28:39;;;;;;;2.08;1.50;;;;;;;;;;5025529;28;20037;-84
2022/12/25 08:31:07;;;;;;;2.30;1.23;;;;;;;;;;5025740;28;20040;-84
2022/12/25 08:33:32;;;;;;;2.40;1.40;;;;;;;;;;5044722;28;20037;-83
2022/12/25 08:36:06;;;;;;;2.42;1.40;;;;;;;;;;5043289;28;20037;-84
2022/12/25 08:38:32;;;;;;;4.30;1.95;;;;;;;;;;5043289;28;20765;-84
2022/12/25 08:40:58;;;;;;;4.18;2.20;;;;;;;;;;5006498;28;20076;-86
2022/12/25 08:43:26;;;;;;;2.63;1.40;;;;;;;;;;5021278;28;20033;-84
2022/12/25 08:45:51;;;;;;;2.60;1.13;;;;;;;;;;5024061;28;20030;-84
2022/12/25 08:48:17;;;;;;;2.08;1.15;;;;;;;;;;5043588;28;20060;-84
2022/12/25 08:50:47;;;;;;;1.70;1.20;;;;;;;;;;5041427;28;20504;-87
2022/12/25 08:53:13;;;;;;;1.83;1.08;;;;;;;;;;5027426;28;20551;-83
2022/12/25 08:55:39;;;;;;;2.58;1.38;;;;;;;;;;5022736;28;20041;-84
2022/12/25 08:58:04;;;;;;;1.63;1.10;;;;;;;;;;5043077;28;20065;-82
2022/12/25 09:00:30;;;;;;;2.22;1.35;;;;;;;;;;5044832;28;20038;-81
2022/12/25 09:02:55;;;;;;;2.70;1.40;;;;;;;;;;5024359;28;20048;-83
2022/12/25 09:05:21;;;;;;;1.98;1.30;;;;;;;;;;5023010;28;20396;-83
2022/12/25 09:07:46;;;;;;;1.63;1.20;;;;;;;;;;5040279;28;20035;-82
2022/12/25 09:10:12;;;;;;;1.77;1.20;;;;;;;;;;5023565;28;20025;-84
2022/12/25 09:12:38;;;;;;;1.80;1.20;;;;;;;;;;5018249;23;20092;-88
2022/12/25 09:15:03;;;;;;;3.08;1.02;;;;;;;;;;4996611;28;20034;-84
2022/12/25 09:17:29;;;;;;;1.48;1.05;;;;;;;;;;4997338;28;20380;-83
2022/12/25 09:19:55;;;;;;;1.60;1.10;;;;;;;;;;4997266;28;20110;-82
2022/12/25 09:22:20;;;;;;;1.48;1.05;;;;;;;;;;5014821;28;20038;-83
2022/12/25 09:24:46;;;;;;;1.60;1.10;;;;;;;;;;5014127;28;20499;-84
2022/12/25 09:27:11;;;;;;;1.17;1.00;;;;;;;;;;5015168;28;20170;-82
2022/12/25 09:29:37;;;;;;;1.20;0.95;;;;;;;;;;5015493;28;20034;-83
2022/12/25 09:32:04;;;;;;;1.30;0.90;;;;;;;;;;5024018;28;20025;-82
2022/12/25 09:34:30;;;;;;;1.40;0.88;;;;;;;;;;5021636;28;20045;-83
2022/12/25 09:36:55;;;;;;;1.75;1.20;;;;;;;;;;5017086;28;20033;-86
2022/12/25 09:39:22;;;;;;;2.33;1.13;;;;;;;;;;5017538;28;20042;-85
2022/12/25 09:42:06;;;;;;;1.92;1.00;;;;;;;;;;4998969;28;20030;-85
2022/12/25 09:44:36;;;;;;;0.73;0.73;;;;;;;;;;5016226;28;20037;-85
2022/12/25 09:47:15;;;;;;;1.63;1.05;;;;;;;;;;5018623;28;20076;-85
2022/12/25 09:49:48;;;;;;;1.17;0.90;;;;;;;;;;5018901;28;20042;-83
2022/12/25 09:52:24;;;;;;;1.52;1.00;;;;;;;;;;4999802;28;20038;-85
2022/12/25 09:55:04;;;;;;;1.65;0.90;;;;;;;;;;5017655;28;20157;-84
2022/12/25 09:57:31;;;;;;;1.48;1.00;;;;;;;;;;4986115;28;20037;-83
2022/12/25 09:59:57;;;;;;;2.13;1.00;;;;;;;;;;5013954;28;20041;-84
2022/12/25 10:02:48;;;;;;;1.25;0.88;;;;;;;;;;5014141;28;20079;-84
2022/12/25 10:05:16;;;;;;;1.70;0.82;;;;;;;;;;5012790;28;20042;-82
2022/12/25 10:08:17;;;;;;;1.40;0.90;;;;;;;;;;5015489;28;20509;-82
2022/12/25 10:11:19;;;;;;;1.77;1.10;;;;;;;;;;4967698;28;20073;-86
2022/12/25 10:14:02;;;;;;;1.55;1.10;;;;;;;;;;4996148;28;20038;-84
2022/12/25 10:16:30;;;;;;;1.92;1.48;;;;;;;;;;5015508;28;20057;-83
2022/12/25 10:19:33;;;;;;;1.70;1.40;;;;;;;;;;5014465;28;20121;-82
2022/12/25 10:22:11;;;;;;;4.40;1.98;;;;;;;;;;4995428;28;20092;-84
2022/12/25 10:24:50;;;;;;;3.30;1.40;;;;;;;;;;4995680;28;20045;-84
2022/12/25 10:27:48;;;;;;;1.73;1.40;;;;;;;;;;5014522;28;20656;-85
2022/12/25 10:30:20;;;;;;;2.13;1.15;;;;;;;;;;5002770;28;20072;-86
2022/12/25 10:32:46;;;;;;;2.00;1.10;;;;;;;;;;5015167;28;20052;-83
2022/12/25 10:35:18;;;;;;;2.85;1.05;;;;;;;;;;4997658;28;20029;-85
2022/12/25 10:37:51;;;;;;;2.83;0.98;;;;;;;;;;4997164;28;20498;-85
2022/12/25 10:40:27;;;;;;;2.15;1.20;;;;;;;;;;5015102;28;20045;-85
2022/12/25 10:43:00;;;;;;;1.55;1.10;;;;;;;;;;5016118;28;20040;-83
2022/12/25 10:45:25;;;;;;;1.65;1.15;;;;;;;;;;4998182;28;20479;-84
2022/12/25 10:48:03;;;;;;;1.63;1.10;;;;;;;;;;5016615;28;20095;-83
2022/12/25 10:50:29;;;;;;;1.20;0.88;;;;;;;;;;5017396;28;20037;-83
2022/12/25 10:53:04;;;;;;;2.72;1.10;;;;;;;;;;5018012;28;20049;-84
2022/12/25 10:55:30;;;;;;;1.40;0.90;;;;;;;;;;4998961;28;20060;-86
2022/12/25 10:57:57;;;;;;;1.83;1.00;;;;;;;;;;5021305;28;20104;-83
2022/12/25 11:00:28;;;;;;;1.17;0.90;;;;;;;;;;5017134;28;20605;-82
2022/12/25 11:02:54;;;;;;;1.85;1.10;;;;;;;;;;5034091;28;20095;-83
2022/12/25 11:05:30;;;;;;;3.33;0.90;;;;;;;;;;5034623;28;20057;-83
2022/12/25 11:07:58;;;;;;;1.13;0.77;;;;;;;;;;5035244;28;20483;-84
2022/12/25 11:10:31;;;;;;;1.70;1.00;;;;;;;;;;5035624;28;20037;-84
2022/12/25 11:12:58;;;;;;;3.33;0.87;;;;;;;;;;5034999;28;20037;-86
2022/12/25 11:15:44;;;;;;;1.52;0.90;;;;;;;;;;5016284;28;20038;-84
2022/12/25 11:18:20;;;;;;;1.90;1.00;;;;;;;;;;5032745;28;20042;-82
2022/12/25 11:21:01;;;;;;;1.13;0.80;;;;;;;;;;5031810;28;20034;-84
2022/12/25 11:23:30;;;;;;;1.20;0.90;;;;;;;;;;5043657;28;20173;-85
2022/12/25 11:26:03;;;;;;;0.98;0.82;;;;;;;;;;5033522;28;20041;-84
2022/12/25 11:28:31;;;;;;;1.20;0.90;;;;;;;;;;5016474;28;20087;-83
2022/12/25 11:31:01;;;;;;;1.13;0.80;;;;;;;;;;5035063;28;20042;-85
2022/12/25 11:33:34;;;;;;;1.30;1.00;;;;;;;;;;5018963;28;20037;-86
2022/12/25 11:36:05;;;;;;;1.77;1.00;;;;;;;;;;5020206;28;20037;-85
2022/12/25 11:38:30;;;;;;;1.30;0.90;;;;;;;;;;5039222;28;20037;-84
2022/12/25 11:41:01;;;;;;;1.48;0.98;;;;;;;;;;5020896;28;20046;-85
2022/12/25 11:43:34;;;;;;;2.00;0.90;;;;;;;;;;5038050;28;20762;-86
2022/12/25 11:46:07;;;;;;;2.40;1.00;;;;;;;;;;5021680;28;20057;-86
2022/12/25 11:48:39;;;;;;;1.65;0.90;;;;;;;;;;5041767;28;20087;-85
2022/12/25 11:51:05;;;;;;;1.90;1.02;;;;;;;;;;5005504;28;20037;-86
2022/12/25 11:53:43;;;;;;;0.85;0.80;;;;;;;;;;5022355;28;20038;-85
2022/12/25 11:56:19;;;;;;;1.17;0.90;;;;;;;;;;5022531;28;20497;-85
2022/12/25 11:58:50;;;;;;;1.40;0.85;;;;;;;;;;5041473;28;20033;-86
2022/12/25 12:01:23;;;;;;;1.50;1.02;;;;;;;;;;5037414;28;20449;-86
2022/12/25 12:03:48;;;;;;;1.10;0.90;;;;;;;;;;5038541;28;20029;-86
2022/12/25 12:06:27;;;;;;;1.67;0.90;;;;;;;;;;5037761;28;20350;-86
2022/12/25 12:09:15;;;;;;;1.63;0.93;;;;;;;;;;5019168;28;20037;-85
2022/12/25 12:11:50;;;;;;;1.90;1.00;;;;;;;;;;4994611;28;20422;-83
2022/12/25 12:14:29;;;;;;;1.40;0.90;;;;;;;;;;5035572;28;20112;-87
2022/12/25 12:16:54;;;;;;;2.30;0.90;;;;;;;;;;5035946;28;20112;-85
2022/12/25 12:19:28;;;;;;;1.88;1.40;;;;;;;;;;5035626;28;20512;-86
2022/12/25 12:21:56;;;;;;;1.38;0.80;;;;;;;;;;5036210;28;20052;-85
2022/12/25 12:24:27;;;;;;;1.85;1.10;;;;;;;;;;5035306;28;20037;-85
2022/12/25 12:27:02;;;;;;;2.95;1.60;;;;;;;;;;5018344;28;20057;-86
2022/12/25 12:29:34;;;;;;;1.77;1.00;;;;;;;;;;5035922;28;20183;-85
2022/12/25 12:32:02;;;;;;;1.17;1.00;;;;;;;;;;5035745;28;20044;-85
2022/12/25 12:34:41;;;;;;;1.92;1.10;;;;;;;;;;5039531;28;20504;-84
2022/12/25 12:37:17;;;;;;;2.80;1.10;;;;;;;;;;5040513;28;20037;-84
2022/12/25 12:39:43;;;;;;;2.85;1.20;;;;;;;;;;5037725;28;20041;-86
2022/12/25 12:42:19;;;;;;;1.83;1.00;;;;;;;;;;5020253;28;20025;-86
2022/12/25 12:44:47;;;;;;;4.35;1.17;;;;;;;;;;5037173;28;20034;-86
2022/12/25 12:47:49;;;;;;;1.63;1.20;;;;;;;;;;5020724;28;20129;-87
2022/12/25 12:50:36;;;;;;;3.22;1.10;;;;;;;;;;5020504;28;20087;-85
2022/12/25 12:53:28;;;;;;;1.50;1.00;;;;;;;;;;5021750;28;20555;-86
2022/12/25 12:55:54;;;;;;;1.90;1.17;;;;;;;;;;5038485;28;20052;-85
2022/12/25 12:58:33;;;;;;;1.52;1.15;;;;;;;;;;5041318;28;20037;-85
2022/12/25 13:01:17;;;;;;;2.95;1.20;;;;;;;;;;5036944;28;20490;-84
2022/12/25 13:04:01;;;;;;;;;;;;;;;;;;5018465;28;20123;-86
2022/12/25 13:07:01;;;;;;;1.17;0.95;;;;;;;;;;5035637;28;19912;-85
2022/12/25 13:09:39;;;;;;;1.23;0.93;;;;;;;;;;5034822;28;20191;-85
2022/12/25 13:12:07;;;;;;;1.98;1.50;;;;;;;;;;5017946;28;20037;-85
2022/12/25 13:14:33;;;;;;;3.15;1.00;;;;;;;;;;5034519;28;20116;-86
2022/12/25 13:16:59;;;;;;;1.33;1.05;;;;;;;;;;5035024;28;20037;-85
2022/12/25 13:19:27;;;;;;;1.88;1.27;;;;;;;;;;5033355;28;20036;-84
2022/12/25 13:21:55;;;;;;;1.65;1.10;;;;;;;;;;5035847;28;20379;-85
2022/12/25 13:24:24;;;;;;;3.75;1.77;;;;;;;;;;5034436;28;20099;-85
2022/12/25 13:26:50;;;;;;;3.95;1.30;;;;;;;;;;5035691;28;20324;-86
2022/12/25 13:29:42;;;;;;;2.20;1.40;;;;;;;;;;5036567;28;20479;-86
2022/12/25 13:32:35;;;;;;;2.33;1.17;;;;;;;;;;5032796;28;20095;-87
2022/12/25 13:35:00;;;;;;;1.52;1.20;;;;;;;;;;5015464;28;20414;-86
2022/12/25 13:37:28;;;;;;;2.70;1.80;;;;;;;;;;5034879;28;20030;-85
2022/12/25 13:39:58;;;;;;;2.15;1.17;;;;;;;;;;5034064;28;20557;-85
2022/12/25 13:42:26;;;;;;;1.88;1.00;;;;;;;;;;5034275;28;20478;-87
2022/12/25 13:44:58;;;;;;;2.38;1.10;;;;;;;;;;5031893;28;20029;-87
2022/12/25 13:47:38;;;;;;;1.35;0.90;;;;;;;;;;5039497;28;20288;-88
2022/12/25 13:50:29;;;;;;;1.00;0.90;;;;;;;;;;5038833;28;20033;-86
2022/12/25 13:53:08;;;;;;;1.10;0.90;;;;;;;;;;5037876;28;20097;-86
2022/12/25 13:55:33;;;;;;;2.85;1.08;;;;;;;;;;5019827;28;20410;-88
2022/12/25 13:58:02;;;;;;;2.55;0.98;;;;;;;;;;5038440;28;20029;-85
2022/12/25 14:00:37;;;;;;;1.77;1.10;;;;;;;;;;5032711;28;20056;-85
2022/12/25 14:03:06;;;;;;;1.20;1.00;;;;;;;;;;5034772;28;20068;-85
2022/12/25 14:05:37;;;;;;;1.63;1.10;;;;;;;;;;5034626;28;20060;-86
2022/12/25 14:08:12;;;;;;;1.92;1.00;;;;;;;;;;5034910;28;20040;-85
2022/12/25 14:10:39;;;;;;;4.00;2.40;;;;;;;;;;5034838;28;20033;-86
2022/12/25 14:13:09;;;;;;;2.00;1.10;;;;;;;;;;5035062;28;20033;-86
2022/12/25 14:15:37;;;;;;;2.00;1.30;;;;;;;;;;5034020;28;20030;-86
2022/12/25 14:18:03;;;;;;;2.08;1.35;;;;;;;;;;5034395;28;20037;-86
2022/12/25 14:20:36;;;;;;;2.45;1.50;;;;;;;;;;5033900;28;20417;-86
2022/12/25 14:23:04;;;;;;;2.53;1.60;;;;;;;;;;5015973;28;20045;-85
2022/12/25 14:25:40;;;;;;;2.90;1.77;;;;;;;;;;5033037;28;20033;-86
2022/12/25 14:28:08;;;;;;;3.40;1.80;;;;;;;;;;4999921;28;20083;-88
2022/12/25 14:30:34;;;;;;;2.83;1.70;;;;;;;;;;5035045;28;20033;-87
2022/12/25 14:33:01;;;;;;;2.22;1.60;;;;;;;;;;5001184;28;20030;-87
2022/12/25 14:35:27;;;;;;;2.28;1.35;;;;;;;;;;5017310;28;20034;-85
2022/12/25 14:37:56;;;;;;;2.47;1.58;;;;;;;;;;5035994;28;20116;-86
2022/12/25 14:40:30;;;;;;;1.92;1.30;;;;;;;;;;5018106;28;20037;-86
2022/12/25 14:43:00;;;;;;;5.03;2.10;;;;;;;;;;5036237;28;20506;-86
2022/12/25 14:45:39;;;;;;;2.75;1.50;;;;;;;;;;5035718;28;20625;-86
2022/12/25 14:48:22;;;;;;;3.20;1.98;;;;;;;;;;5018875;28;20029;-86
2022/12/25 14:51:05;;;;;;;4.50;2.40;;;;;;;;;;5019716;28;20033;-86
2022/12/25 14:53:40;;;;;;;3.67;2.50;;;;;;;;;;5037812;28;20048;-86
2022/12/25 14:56:08;;;;;;;3.58;1.90;;;;;;;;;;5015875;28;20041;-85
2022/12/25 14:58:40;;;;;;;2.58;1.27;;;;;;;;;;5015114;28;20510;-85
2022/12/25 15:01:05;;;;;;;2.35;1.05;;;;;;;;;;5042162;28;20037;-85
2022/12/25 15:03:35;;;;;;;1.95;1.10;;;;;;;;;;5015968;28;20516;-86
2022/12/25 15:06:10;;;;;;;4.05;1.23;;;;;;;;;;5015923;28;20045;-87
2022/12/25 15:08:36;;;;;;;2.70;0.98;;;;;;;;;;5018363;28;20486;-85
2022/12/25 15:11:01;;;;;;;1.05;0.95;;;;;;;;;;5026741;28;20033;-85
2022/12/25 15:13:27;;;;;;;1.83;1.15;;;;;;;;;;5045004;22;20057;-90
2022/12/25 15:15:52;;;;;;;3.58;1.27;;;;;;;;;;5025650;28;20041;-90
2022/12/25 15:18:21;;;;;;;2.20;1.10;;;;;;;;;;5026114;28;20038;-87
2022/12/25 15:20:51;;;;;;;1.30;1.00;;;;;;;;;;5008490;28;20123;-87
2022/12/25 15:23:17;;;;;;;1.95;1.58;;;;;;;;;;5007671;28;20105;-88
2022/12/25 15:25:42;;;;;;;4.45;2.35;;;;;;;;;;5025439;28;20041;-88
2022/12/25 15:28:10;;;;;;;5.38;3.28;;;;;;;;;;5007976;28;20061;-89
2022/12/25 15:30:38;;;;;;;2.92;2.00;;;;;;;;;;5025639;28;20038;-88
2022/12/25 15:33:11;;;;;;;5.20;3.15;;;;;;;;;;5009072;28;20048;-89
2022/12/25 15:35:37;;;;;;;1.80;1.20;;;;;;;;;;5024863;28;20037;-88
2022/12/25 15:38:03;;;;;;;3.28;1.40;;;;;;;;;;5007856;28;20030;-89
2022/12/25 15:40:29;;;;;;;1.58;1.10;;;;;;;;;;5026136;28;20113;-87
2022/12/25 15:42:55;;;;;;;2.00;1.17;;;;;;;;;;5026025;28;20044;-87
2022/12/25 15:45:25;;;;;;;1.52;1.05;;;;;;;;;;5025483;28;20063;-88
2022/12/25 15:47:51;;;;;;;2.75;1.20;;;;;;;;;;5025367;28;20042;-89
2022/12/25 15:50:18;;;;;;;2.67;1.38;;;;;;;;;;5025827;28;20045;-88
2022/12/25 15:52:45;;;;;;;1.90;1.40;;;;;;;;;;5026474;28;20569;-89
2022/12/25 15:55:11;;;;;;;2.38;1.25;;;;;;;;;;5021918;28;20022;-87
2022/12/25 15:57:39;;;;;;;3.83;1.33;;;;;;;;;;5026599;28;20069;-90
2022/12/25 16:00:07;;;;;;;2.75;1.50;;;;;;;;;;5026077;28;20040;-89
2022/12/25 16:02:37;;;;;;;1.88;1.30;;;;;;;;;;5024839;28;20128;-88
2022/12/25 16:05:03;;;;;;;2.22;1.50;;;;;;;;;;5024458;28;20057;-88
2022/12/25 16:07:30;;;;;;;2.10;1.40;;;;;;;;;;5023545;28;20049;-89
2022/12/25 16:09:56;;;;;;;1.73;1.25;;;;;;;;;;5010935;28;20029;-87
2022/12/25 16:12:22;;;;;;;1.40;1.02;;;;;;;;;;5035939;28;20033;-88
2022/12/25 16:14:47;;;;;;;2.80;1.20;;;;;;;;;;5032923;28;20144;-88
2022/12/25 16:17:14;;;;;;;2.00;1.30;;;;;;;;;;5035217;28;20065;-88
2022/12/25 16:19:40;;;;;;;2.45;1.60;;;;;;;;;;5011982;28;20493;-87
2022/12/25 16:22:18;;;;;;;2.58;1.75;;;;;;;;;;5031633;28;20510;-87
2022/12/25 16:24:44;;;;;;;2.15;1.35;;;;;;;;;;5031075;28;20037;-87
2022/12/25 16:27:12;;;;;;;2.80;1.60;;;;;;;;;;5031174;28;20017;-87
2022/12/25 16:29:37;;;;;;;2.60;1.52;;;;;;;;;;5029265;28;20026;-87
2022/12/25 16:32:03;;;;;;;1.90;1.27;;;;;;;;;;5028760;28;20033;-86
2022/12/25 16:34:28;;;;;;;4.38;1.70;;;;;;;;;;5027028;28;20035;-86
2022/12/25 16:36:55;;;;;;;7.20;4.40;;;;;;;;;;5040771;28;20107;-87
2022/12/25 16:39:21;;;;;;;4.57;2.80;;;;;;;;;;5041592;28;20057;-88